sensor_id;sensor_type;location;lat;lon;timestamp;pressure;altitude;pressure_sealevel;temperature;humidity
64095;BME280;50353;51.420;5.682;2023-03-21T00:01:14;101416.75;;;11.66;82.04
64095;BME280;50353;51.420;5.682;2023-03-21T00:03:40;101413.31;;;11.64;81.00
64095;BME280;50353;51.420;5.682;2023-03-21T00:06:12;101410.44;;;11.53;81.75
64095;BME280;50353;51.420;5.682;2023-03-21T00:08:38;101412.97;;;11.38;83.33
64095;BME280;50353;51.420;5.682;2023-03-21T00:11:06;101399.66;;;11.56;82.53
64095;BME280;50353;51.420;5.682;2023-03-21T00:13:32;101409.22;;;11.42;83.51
64095;BME280;50353;51.420;5.682;2023-03-21T00:16:04;101399.38;;;11.28;84.36
64095;BME280;50353;51.420;5.682;2023-03-21T00:18:30;101409.47;;;10.88;86.57
64095;BME280;50353;51.420;5.682;2023-03-21T00:21:00;101404.84;;;11.25;85.77
64095;BME280;50353;51.420;5.682;2023-03-21T00:23:26;101399.47;;;11.27;86.11
64095;BME280;50353;51.420;5.682;2023-03-21T00:25:52;101399.28;;;11.30;85.44
64095;BME280;50353;51.420;5.682;2023-03-21T00:28:18;101399.63;;;11.40;85.70
64095;BME280;50353;51.420;5.682;2023-03-21T00:30:43;101396.75;;;11.44;84.26
64095;BME280;50353;51.420;5.682;2023-03-21T00:33:08;101395.72;;;11.31;85.43
64095;BME280;50353;51.420;5.682;2023-03-21T00:35:34;101391.56;;;11.09;86.53
64095;BME280;50353;51.420;5.682;2023-03-21T00:38:00;101386.34;;;10.74;90.04
64095;BME280;50353;51.420;5.682;2023-03-21T00:40:26;101377.75;;;11.04;89.45
64095;BME280;50353;51.420;5.682;2023-03-21T00:42:51;101377.66;;;10.72;90.15
64095;BME280;50353;51.420;5.682;2023-03-21T00:45:17;101377.66;;;10.72;90.38
64095;BME280;50353;51.420;5.682;2023-03-21T00:47:43;101377.44;;;11.10;88.89
64095;BME280;50353;51.420;5.682;2023-03-21T00:50:09;101371.03;;;10.81;88.73
64095;BME280;50353;51.420;5.682;2023-03-21T00:52:36;101358.63;;;10.65;89.40
64095;BME280;50353;51.420;5.682;2023-03-21T00:55:01;101364.13;;;10.78;90.14
64095;BME280;50353;51.420;5.682;2023-03-21T00:57:27;101359.59;;;10.80;89.36
64095;BME280;50353;51.420;5.682;2023-03-21T00:59:52;101357.34;;;10.73;89.96
64095;BME280;50353;51.420;5.682;2023-03-21T01:02:17;101351.56;;;11.15;87.34
64095;BME280;50353;51.420;5.682;2023-03-21T01:04:47;101347.13;;;10.67;89.87
64095;BME280;50353;51.420;5.682;2023-03-21T01:07:13;101348.88;;;10.66;90.42
64095;BME280;50353;51.420;5.682;2023-03-21T01:09:38;101344.53;;;10.82;90.09
64095;BME280;50353;51.420;5.682;2023-03-21T01:12:04;101348.50;;;10.74;90.03
64095;BME280;50353;51.420;5.682;2023-03-21T01:14:29;101336.94;;;10.41;92.13
64095;BME280;50353;51.420;5.682;2023-03-21T01:16:55;101332.97;;;10.15;94.08
64095;BME280;50353;51.420;5.682;2023-03-21T01:19:23;101323.41;;;10.30;93.95
64095;BME280;50353;51.420;5.682;2023-03-21T01:21:50;101330.19;;;10.36;93.00
64095;BME280;50353;51.420;5.682;2023-03-21T01:24:15;101328.44;;;10.36;93.15
64095;BME280;50353;51.420;5.682;2023-03-21T01:26:41;101327.69;;;10.32;92.80
64095;BME280;50353;51.420;5.682;2023-03-21T01:29:06;101321.78;;;10.27;93.52
64095;BME280;50353;51.420;5.682;2023-03-21T01:31:31;101318.91;;;10.14;94.83
64095;BME280;50353;51.420;5.682;2023-03-21T01:33:56;101316.91;;;10.02;95.70
64095;BME280;50353;51.420;5.682;2023-03-21T01:36:24;101309.66;;;10.06;94.83
64095;BME280;50353;51.420;5.682;2023-03-21T01:38:50;101308.00;;;9.86;96.26
64095;BME280;50353;51.420;5.682;2023-03-21T01:41:27;101307.25;;;9.84;96.22
64095;BME280;50353;51.420;5.682;2023-03-21T01:43:52;101307.25;;;10.01;95.72
64095;BME280;50353;51.420;5.682;2023-03-21T01:46:35;101303.91;;;9.97;95.18
64095;BME280;50353;51.420;5.682;2023-03-21T01:51:28;101303.81;;;9.99;95.57
64095;BME280;50353;51.420;5.682;2023-03-21T01:53:55;101300.34;;;10.16;94.41
64095;BME280;50353;51.420;5.682;2023-03-21T01:56:27;101308.34;;;10.14;93.85
64095;BME280;50353;51.420;5.682;2023-03-21T01:58:57;101299.34;;;10.36;93.17
64095;BME280;50353;51.420;5.682;2023-03-21T02:01:27;101298.47;;;10.36;92.17
64095;BME280;50353;51.420;5.682;2023-03-21T02:03:52;101295.53;;;10.42;92.36
64095;BME280;50353;51.420;5.682;2023-03-21T02:06:29;101294.75;;;10.40;91.48
64095;BME280;50353;51.420;5.682;2023-03-21T02:09:00;101292.19;;;10.38;92.18
64095;BME280;50353;51.420;5.682;2023-03-21T02:11:26;101287.03;;;10.53;90.42
64095;BME280;50353;51.420;5.682;2023-03-21T02:13:53;101286.56;;;10.78;89.08
64095;BME280;50353;51.420;5.682;2023-03-21T02:16:28;101281.59;;;10.21;91.02
64095;BME280;50353;51.420;5.682;2023-03-21T02:22:01;101271.94;;;10.55;92.09
64095;BME280;50353;51.420;5.682;2023-03-21T02:27:46;101265.38;;;10.62;90.08
64095;BME280;50353;51.420;5.682;2023-03-21T02:36:26;101254.72;;;10.30;90.93
64095;BME280;50353;51.420;5.682;2023-03-21T02:39:04;101242.09;;;10.53;90.07
64095;BME280;50353;51.420;5.682;2023-03-21T02:41:48;101247.94;;;10.75;88.88
64095;BME280;50353;51.420;5.682;2023-03-21T02:46:49;101242.53;;;10.77;88.72
64095;BME280;50353;51.420;5.682;2023-03-21T02:52:08;101231.84;;;10.29;91.62
64095;BME280;50353;51.420;5.682;2023-03-21T02:54:36;101237.97;;;10.96;88.27
64095;BME280;50353;51.420;5.682;2023-03-21T02:57:02;101242.22;;;10.83;87.80
64095;BME280;50353;51.420;5.682;2023-03-21T02:59:29;101246.88;;;10.62;88.03
64095;BME280;50353;51.420;5.682;2023-03-21T03:01:55;101235.13;;;10.83;87.88
64095;BME280;50353;51.420;5.682;2023-03-21T03:04:26;101239.47;;;10.53;88.54
64095;BME280;50353;51.420;5.682;2023-03-21T03:07:04;101236.38;;;10.44;89.98
64095;BME280;50353;51.420;5.682;2023-03-21T03:09:58;101236.38;;;10.44;90.11
64095;BME280;50353;51.420;5.682;2023-03-21T03:12:53;101228.69;;;10.40;90.50
64095;BME280;50353;51.420;5.682;2023-03-21T03:26:32;101226.81;;;10.24;94.19
64095;BME280;50353;51.420;5.682;2023-03-21T03:29:03;101217.28;;;10.22;94.70
64095;BME280;50353;51.420;5.682;2023-03-21T03:31:36;101214.28;;;10.28;94.54
64095;BME280;50353;51.420;5.682;2023-03-21T03:34:10;101216.78;;;10.48;93.57
64095;BME280;50353;51.420;5.682;2023-03-21T03:36:41;101214.41;;;10.09;95.21
64095;BME280;50353;51.420;5.682;2023-03-21T03:39:09;101209.47;;;9.68;97.21
64095;BME280;50353;51.420;5.682;2023-03-21T03:41:50;101212.19;;;9.84;97.61
64095;BME280;50353;51.420;5.682;2023-03-21T03:44:18;101215.63;;;9.68;99.34
64095;BME280;50353;51.420;5.682;2023-03-21T03:46:52;101204.97;;;9.70;100.00
64095;BME280;50353;51.420;5.682;2023-03-21T03:49:23;101200.22;;;9.94;99.14
64095;BME280;50353;51.420;5.682;2023-03-21T03:51:57;101206.19;;;9.97;99.01
64095;BME280;50353;51.420;5.682;2023-03-21T03:54:31;101201.63;;;9.84;99.97
64095;BME280;50353;51.420;5.682;2023-03-21T03:56:57;101204.09;;;9.87;99.27
64095;BME280;50353;51.420;5.682;2023-03-21T03:59:24;101207.91;;;9.98;99.12
64095;BME280;50353;51.420;5.682;2023-03-21T04:01:50;101204.91;;;9.71;100.00
64095;BME280;50353;51.420;5.682;2023-03-21T04:04:15;101206.41;;;10.10;97.00
64095;BME280;50353;51.420;5.682;2023-03-21T04:06:44;101194.63;;;10.00;97.48
64095;BME280;50353;51.420;5.682;2023-03-21T04:09:16;101205.03;;;9.86;99.17
64095;BME280;50353;51.420;5.682;2023-03-21T04:11:41;101201.06;;;10.12;98.33
64095;BME280;50353;51.420;5.682;2023-03-21T04:14:07;101197.72;;;10.08;98.67
64095;BME280;50353;51.420;5.682;2023-03-21T04:16:32;101202.88;;;9.76;99.21
64095;BME280;50353;51.420;5.682;2023-03-21T04:18:57;101199.34;;;9.93;99.26
64095;BME280;50353;51.420;5.682;2023-03-21T04:21:22;101192.06;;;9.98;98.35
64095;BME280;50353;51.420;5.682;2023-03-21T04:23:48;101188.94;;;10.41;94.97
64095;BME280;50353;51.420;5.682;2023-03-21T04:26:14;101188.97;;;9.90;97.73
64095;BME280;50353;51.420;5.682;2023-03-21T04:28:39;101185.00;;;9.81;99.21
64095;BME280;50353;51.420;5.682;2023-03-21T04:31:07;101186.16;;;9.93;98.32
64095;BME280;50353;51.420;5.682;2023-03-21T04:33:33;101181.91;;;9.73;100.00
64095;BME280;50353;51.420;5.682;2023-03-21T04:36:03;101180.78;;;9.95;99.28
64095;BME280;50353;51.420;5.682;2023-03-21T04:38:31;101175.97;;;9.86;99.53
64095;BME280;50353;51.420;5.682;2023-03-21T04:40:58;101174.69;;;9.77;100.00
64095;BME280;50353;51.420;5.682;2023-03-21T04:43:23;101163.28;;;9.76;100.00
64095;BME280;50353;51.420;5.682;2023-03-21T04:45:49;101163.66;;;9.86;100.00
64095;BME280;50353;51.420;5.682;2023-03-21T04:48:14;101167.31;;;9.84;100.00
64095;BME280;50353;51.420;5.682;2023-03-21T04:50:42;101171.03;;;9.79;100.00
64095;BME280;50353;51.420;5.682;2023-03-21T04:53:07;101166.91;;;9.91;99.78
64095;BME280;50353;51.420;5.682;2023-03-21T04:55:32;101164.81;;;9.98;97.60
64095;BME280;50353;51.420;5.682;2023-03-21T04:57:58;101172.44;;;10.20;97.03
64095;BME280;50353;51.420;5.682;2023-03-21T05:00:23;101169.34;;;10.12;97.07
64095;BME280;50353;51.420;5.682;2023-03-21T05:02:49;101164.94;;;9.95;98.18
64095;BME280;50353;51.420;5.682;2023-03-21T05:05:15;101169.84;;;10.03;97.82
64095;BME280;50353;51.420;5.682;2023-03-21T05:07:40;101173.97;;;9.91;97.39
64095;BME280;50353;51.420;5.682;2023-03-21T05:10:08;101167.38;;;10.00;98.16
64095;BME280;50353;51.420;5.682;2023-03-21T05:12:34;101162.72;;;9.87;99.12
64095;BME280;50353;51.420;5.682;2023-03-21T05:14:59;101166.91;;;10.25;96.06
64095;BME280;50353;51.420;5.682;2023-03-21T05:17:25;101162.72;;;10.21;95.37
64095;BME280;50353;51.420;5.682;2023-03-21T05:19:52;101143.19;;;10.57;94.41
64095;BME280;50353;51.420;5.682;2023-03-21T05:22:22;101134.69;;;10.34;94.91
64095;BME280;50353;51.420;5.682;2023-03-21T05:24:49;101133.75;;;10.19;93.24
64095;BME280;50353;51.420;5.682;2023-03-21T05:27:18;101141.41;;;10.24;93.91
64095;BME280;50353;51.420;5.682;2023-03-21T05:30:20;101138.31;;;10.00;96.38
64095;BME280;50353;51.420;5.682;2023-03-21T05:32:45;101137.97;;;10.39;92.71
64095;BME280;50353;51.420;5.682;2023-03-21T05:35:11;101142.06;;;10.77;91.86
64095;BME280;50353;51.420;5.682;2023-03-21T05:37:36;101147.75;;;10.21;94.26
64095;BME280;50353;51.420;5.682;2023-03-21T05:40:03;101148.41;;;10.58;92.33
64095;BME280;50353;51.420;5.682;2023-03-21T05:42:30;101140.97;;;10.49;92.41
64095;BME280;50353;51.420;5.682;2023-03-21T05:44:56;101146.50;;;10.60;91.98
64095;BME280;50353;51.420;5.682;2023-03-21T05:47:21;101140.66;;;10.22;92.92
64095;BME280;50353;51.420;5.682;2023-03-21T05:49:47;101143.94;;;10.43;92.33
64095;BME280;50353;51.420;5.682;2023-03-21T05:52:12;101140.69;;;10.54;92.64
64095;BME280;50353;51.420;5.682;2023-03-21T05:54:37;101145.66;;;10.76;91.32
64095;BME280;50353;51.420;5.682;2023-03-21T05:57:03;101142.16;;;10.10;93.89
64095;BME280;50353;51.420;5.682;2023-03-21T05:59:29;101141.72;;;10.35;93.87
64095;BME280;50353;51.420;5.682;2023-03-21T06:01:54;101133.16;;;10.30;93.92
64095;BME280;50353;51.420;5.682;2023-03-21T06:04:20;101142.75;;;10.80;91.37
64095;BME280;50353;51.420;5.682;2023-03-21T06:06:45;101139.09;;;10.35;92.18
64095;BME280;50353;51.420;5.682;2023-03-21T06:09:10;101141.22;;;10.60;92.87
64095;BME280;50353;51.420;5.682;2023-03-21T06:11:37;101142.44;;;10.87;90.04
64095;BME280;50353;51.420;5.682;2023-03-21T06:14:06;101138.59;;;10.76;90.59
64095;BME280;50353;51.420;5.682;2023-03-21T06:16:31;101149.22;;;10.43;93.04
64095;BME280;50353;51.420;5.682;2023-03-21T06:18:56;101154.78;;;10.70;92.70
64095;BME280;50353;51.420;5.682;2023-03-21T06:21:21;101147.19;;;10.48;93.43
64095;BME280;50353;51.420;5.682;2023-03-21T06:23:47;101139.28;;;10.14;95.16
64095;BME280;50353;51.420;5.682;2023-03-21T06:26:15;101151.63;;;10.14;95.94
64095;BME280;50353;51.420;5.682;2023-03-21T06:28:40;101151.03;;;10.42;94.31
64095;BME280;50353;51.420;5.682;2023-03-21T06:31:06;101147.88;;;10.52;94.20
64095;BME280;50353;51.420;5.682;2023-03-21T06:33:31;101147.88;;;10.83;91.43
64095;BME280;50353;51.420;5.682;2023-03-21T06:35:57;101144.88;;;10.90;90.94
64095;BME280;50353;51.420;5.682;2023-03-21T06:38:24;101147.91;;;10.68;90.84
64095;BME280;50353;51.420;5.682;2023-03-21T06:40:49;101152.06;;;10.56;92.58
64095;BME280;50353;51.420;5.682;2023-03-21T06:43:15;101150.19;;;10.42;92.91
64095;BME280;50353;51.420;5.682;2023-03-21T06:45:42;101147.19;;;10.48;93.58
64095;BME280;50353;51.420;5.682;2023-03-21T06:48:07;101152.03;;;10.40;92.93
64095;BME280;50353;51.420;5.682;2023-03-21T06:50:32;101151.19;;;10.71;91.77
64095;BME280;50353;51.420;5.682;2023-03-21T06:52:58;101152.72;;;10.43;92.99
64095;BME280;50353;51.420;5.682;2023-03-21T06:55:24;101146.13;;;11.14;90.11
64095;BME280;50353;51.420;5.682;2023-03-21T06:57:55;101153.13;;;11.15;88.78
64095;BME280;50353;51.420;5.682;2023-03-21T07:00:21;101152.34;;;11.13;89.86
64095;BME280;50353;51.420;5.682;2023-03-21T07:02:47;101148.91;;;10.65;92.34
64095;BME280;50353;51.420;5.682;2023-03-21T07:05:13;101151.81;;;11.23;90.96
64095;BME280;50353;51.420;5.682;2023-03-21T07:07:39;101144.22;;;11.16;89.51
64095;BME280;50353;51.420;5.682;2023-03-21T07:10:05;101148.91;;;11.27;89.04
64095;BME280;50353;51.420;5.682;2023-03-21T07:12:30;101155.31;;;10.61;93.36
64095;BME280;50353;51.420;5.682;2023-03-21T07:15:03;101158.19;;;10.72;94.40
64095;BME280;50353;51.420;5.682;2023-03-21T07:17:31;101160.16;;;11.01;92.44
64095;BME280;50353;51.420;5.682;2023-03-21T07:19:56;101161.00;;;11.01;93.13
64095;BME280;50353;51.420;5.682;2023-03-21T07:22:22;101156.03;;;11.11;92.11
64095;BME280;50353;51.420;5.682;2023-03-21T07:24:48;101170.72;;;10.69;95.32
64095;BME280;50353;51.420;5.682;2023-03-21T07:27:14;101169.94;;;10.98;91.78
64095;BME280;50353;51.420;5.682;2023-03-21T07:29:39;101173.38;;;11.01;91.59
64095;BME280;50353;51.420;5.682;2023-03-21T07:32:05;101167.69;;;11.23;91.13
64095;BME280;50353;51.420;5.682;2023-03-21T07:34:31;101173.84;;;11.23;91.56
64095;BME280;50353;51.420;5.682;2023-03-21T07:36:58;101164.41;;;11.03;92.24
64095;BME280;50353;51.420;5.682;2023-03-21T07:39:23;101176.94;;;11.15;91.26
64095;BME280;50353;51.420;5.682;2023-03-21T07:41:50;101174.44;;;11.12;91.77
64095;BME280;50353;51.420;5.682;2023-03-21T07:44:15;101179.75;;;11.12;91.17
64095;BME280;50353;51.420;5.682;2023-03-21T07:46:40;101181.63;;;10.94;92.88
64095;BME280;50353;51.420;5.682;2023-03-21T07:49:06;101181.81;;;11.07;91.42
64095;BME280;50353;51.420;5.682;2023-03-21T07:51:33;101186.31;;;11.52;91.10
64095;BME280;50353;51.420;5.682;2023-03-21T07:54:00;101181.91;;;11.06;92.42
64095;BME280;50353;51.420;5.682;2023-03-21T07:56:26;101181.06;;;10.73;96.30
64095;BME280;50353;51.420;5.682;2023-03-21T07:58:51;101176.81;;;10.87;95.27
64095;BME280;50353;51.420;5.682;2023-03-21T08:01:17;101179.09;;;10.61;96.44
64095;BME280;50353;51.420;5.682;2023-03-21T08:03:42;101175.94;;;11.02;94.35
64095;BME280;50353;51.420;5.682;2023-03-21T08:06:08;101167.41;;;11.27;93.03
64095;BME280;50353;51.420;5.682;2023-03-21T08:08:33;101178.66;;;11.01;95.27
64095;BME280;50353;51.420;5.682;2023-03-21T08:10:58;101171.84;;;10.64;96.88
64095;BME280;50353;51.420;5.682;2023-03-21T08:13:24;101168.31;;;10.96;95.95
64095;BME280;50353;51.420;5.682;2023-03-21T08:15:50;101164.16;;;10.92;97.07
64095;BME280;50353;51.420;5.682;2023-03-21T08:18:15;101169.72;;;11.03;96.43
64095;BME280;50353;51.420;5.682;2023-03-21T08:20:40;101168.31;;;11.42;93.55
64095;BME280;50353;51.420;5.682;2023-03-21T08:23:06;101156.34;;;11.21;93.06
64095;BME280;50353;51.420;5.682;2023-03-21T08:25:31;101163.53;;;11.19;94.84
64095;BME280;50353;51.420;5.682;2023-03-21T08:27:57;101155.78;;;10.83;96.23
64095;BME280;50353;51.420;5.682;2023-03-21T08:30:25;101142.34;;;11.19;96.65
64095;BME280;50353;51.420;5.682;2023-03-21T08:32:55;101131.88;;;11.17;95.99
64095;BME280;50353;51.420;5.682;2023-03-21T08:35:21;101125.25;;;10.94;97.82
64095;BME280;50353;51.420;5.682;2023-03-21T08:37:47;101128.00;;;11.23;95.80
64095;BME280;50353;51.420;5.682;2023-03-21T08:40:15;101117.56;;;10.89;97.69
64095;BME280;50353;51.420;5.682;2023-03-21T08:42:41;101117.63;;;11.20;96.55
64095;BME280;50353;51.420;5.682;2023-03-21T08:45:07;101120.56;;;10.83;95.81
64095;BME280;50353;51.420;5.682;2023-03-21T08:47:33;101116.16;;;11.44;95.23
64095;BME280;50353;51.420;5.682;2023-03-21T08:49:58;101123.41;;;11.71;93.57
64095;BME280;50353;51.420;5.682;2023-03-21T08:52:24;101124.22;;;11.57;93.96
64095;BME280;50353;51.420;5.682;2023-03-21T08:54:51;101112.13;;;10.92;99.93
64095;BME280;50353;51.420;5.682;2023-03-21T08:57:17;101111.03;;;11.11;98.07
64095;BME280;50353;51.420;5.682;2023-03-21T08:59:42;101113.06;;;10.91;98.84
64095;BME280;50353;51.420;5.682;2023-03-21T09:02:09;101114.53;;;10.65;100.00
64095;BME280;50353;51.420;5.682;2023-03-21T09:04:37;101107.41;;;10.97;100.00
64095;BME280;50353;51.420;5.682;2023-03-21T09:07:02;101118.03;;;11.42;96.89
64095;BME280;50353;51.420;5.682;2023-03-21T09:09:29;101114.19;;;11.18;96.91
64095;BME280;50353;51.420;5.682;2023-03-21T09:11:55;101117.31;;;10.94;98.77
64095;BME280;50353;51.420;5.682;2023-03-21T09:14:20;101110.28;;;11.09;99.67
64095;BME280;50353;51.420;5.682;2023-03-21T09:16:45;101115.22;;;11.15;99.73
64095;BME280;50353;51.420;5.682;2023-03-21T09:19:11;101107.91;;;11.04;98.90
64095;BME280;50353;51.420;5.682;2023-03-21T09:21:37;101108.66;;;11.67;94.96
64095;BME280;50353;51.420;5.682;2023-03-21T09:24:04;101108.00;;;11.33;94.87
64095;BME280;50353;51.420;5.682;2023-03-21T09:26:30;101103.06;;;11.27;96.15
64095;BME280;50353;51.420;5.682;2023-03-21T09:28:55;101097.63;;;11.59;94.29
64095;BME280;50353;51.420;5.682;2023-03-21T09:31:21;101090.59;;;10.98;96.04
64095;BME280;50353;51.420;5.682;2023-03-21T09:33:51;101089.88;;;11.41;93.84
64095;BME280;50353;51.420;5.682;2023-03-21T09:36:17;101095.00;;;11.73;92.65
64095;BME280;50353;51.420;5.682;2023-03-21T09:38:47;101088.75;;;11.45;93.46
64095;BME280;50353;51.420;5.682;2023-03-21T09:41:34;101098.03;;;11.53;93.32
64095;BME280;50353;51.420;5.682;2023-03-21T09:46:55;101088.00;;;11.72;91.17
64095;BME280;50353;51.420;5.682;2023-03-21T09:49:26;101083.03;;;12.11;87.95
64095;BME280;50353;51.420;5.682;2023-03-21T09:51:57;101080.56;;;12.08;88.04
64095;BME280;50353;51.420;5.682;2023-03-21T09:54:32;101077.53;;;11.99;87.27
64095;BME280;50353;51.420;5.682;2023-03-21T09:57:04;101080.28;;;11.83;87.26
64095;BME280;50353;51.420;5.682;2023-03-21T09:59:37;101071.13;;;11.30;89.66
64095;BME280;50353;51.420;5.682;2023-03-21T10:02:46;101078.16;;;11.89;88.76
64095;BME280;50353;51.420;5.682;2023-03-21T10:05:24;101065.41;;;11.66;89.41
64095;BME280;50353;51.420;5.682;2023-03-21T10:10:33;101060.97;;;12.10;87.22
64095;BME280;50353;51.420;5.682;2023-03-21T10:13:01;101057.53;;;11.94;88.92
64095;BME280;50353;51.420;5.682;2023-03-21T10:15:26;101053.38;;;12.18;86.82
64095;BME280;50353;51.420;5.682;2023-03-21T10:18:00;101053.50;;;11.88;89.25
64095;BME280;50353;51.420;5.682;2023-03-21T10:20:30;101046.00;;;11.80;89.54
64095;BME280;50353;51.420;5.682;2023-03-21T10:22:59;101045.41;;;12.33;86.19
64095;BME280;50353;51.420;5.682;2023-03-21T10:25:30;101045.00;;;12.39;87.80
64095;BME280;50353;51.420;5.682;2023-03-21T10:27:56;101042.69;;;12.47;85.92
64095;BME280;50353;51.420;5.682;2023-03-21T10:33:03;101045.88;;;12.40;85.75
64095;BME280;50353;51.420;5.682;2023-03-21T10:35:31;101049.06;;;12.03;86.78
64095;BME280;50353;51.420;5.682;2023-03-21T10:37:59;101052.00;;;11.98;86.38
64095;BME280;50353;51.420;5.682;2023-03-21T10:40:25;101039.75;;;12.52;84.48
64095;BME280;50353;51.420;5.682;2023-03-21T10:42:54;101043.56;;;12.06;86.25
64095;BME280;50353;51.420;5.682;2023-03-21T10:45:21;101033.31;;;12.14;87.14
64095;BME280;50353;51.420;5.682;2023-03-21T10:47:48;101032.28;;;12.17;86.67
64095;BME280;50353;51.420;5.682;2023-03-21T10:50:17;101034.69;;;12.34;86.40
64095;BME280;50353;51.420;5.682;2023-03-21T10:52:48;101017.69;;;12.51;83.86
64095;BME280;50353;51.420;5.682;2023-03-21T10:55:24;101024.31;;;12.31;83.98
64095;BME280;50353;51.420;5.682;2023-03-21T10:58:17;101025.44;;;12.82;83.89
64095;BME280;50353;51.420;5.682;2023-03-21T11:00:43;101025.78;;;13.03;81.35
64095;BME280;50353;51.420;5.682;2023-03-21T11:03:26;101030.34;;;13.01;82.05
64095;BME280;50353;51.420;5.682;2023-03-21T11:06:03;101034.72;;;12.62;81.07
64095;BME280;50353;51.420;5.682;2023-03-21T11:08:29;101040.31;;;12.84;81.60
64095;BME280;50353;51.420;5.682;2023-03-21T11:11:04;101036.50;;;13.01;80.43
64095;BME280;50353;51.420;5.682;2023-03-21T11:16:11;101032.22;;;12.86;82.56
64095;BME280;50353;51.420;5.682;2023-03-21T11:18:44;101032.84;;;12.90;82.88
64095;BME280;50353;51.420;5.682;2023-03-21T11:21:13;101031.63;;;13.08;82.13
64095;BME280;50353;51.420;5.682;2023-03-21T11:23:42;101025.06;;;13.01;80.29
64095;BME280;50353;51.420;5.682;2023-03-21T11:26:11;101030.84;;;13.46;77.29
64095;BME280;50353;51.420;5.682;2023-03-21T11:28:40;101022.75;;;13.48;76.64
64095;BME280;50353;51.420;5.682;2023-03-21T11:31:07;101033.44;;;13.21;78.11
64095;BME280;50353;51.420;5.682;2023-03-21T11:33:50;101014.56;;;13.25;74.78
64095;BME280;50353;51.420;5.682;2023-03-21T11:39:13;101013.63;;;13.52;71.62
64095;BME280;50353;51.420;5.682;2023-03-21T11:41:39;101027.03;;;13.38;71.78
64095;BME280;50353;51.420;5.682;2023-03-21T11:44:26;101029.22;;;13.69;72.26
64095;BME280;50353;51.420;5.682;2023-03-21T11:46:52;101031.38;;;13.51;71.47
64095;BME280;50353;51.420;5.682;2023-03-21T11:49:19;101027.03;;;13.63;71.06
64095;BME280;50353;51.420;5.682;2023-03-21T11:52:11;101012.75;;;13.77;70.24
64095;BME280;50353;51.420;5.682;2023-03-21T11:54:48;101018.31;;;14.11;68.99
64095;BME280;50353;51.420;5.682;2023-03-21T12:00:14;101006.88;;;13.85;69.72
64095;BME280;50353;51.420;5.682;2023-03-21T12:03:15;101013.31;;;14.07;69.14
64095;BME280;50353;51.420;5.682;2023-03-21T12:05:53;101004.28;;;14.33;68.94
64095;BME280;50353;51.420;5.682;2023-03-21T12:11:17;100989.28;;;14.08;68.45
64095;BME280;50353;51.420;5.682;2023-03-21T12:17:09;100985.50;;;14.48;66.71
64095;BME280;50353;51.420;5.682;2023-03-21T12:22:42;100974.75;;;14.25;67.25
64095;BME280;50353;51.420;5.682;2023-03-21T12:25:18;100974.22;;;13.96;67.55
64095;BME280;50353;51.420;5.682;2023-03-21T12:28:14;100963.72;;;14.43;66.16
64095;BME280;50353;51.420;5.682;2023-03-21T12:39:28;100943.00;;;15.51;64.54
64095;BME280;50353;51.420;5.682;2023-03-21T12:44:28;100943.25;;;15.48;64.28
64095;BME280;50353;51.420;5.682;2023-03-21T12:46:59;100924.25;;;15.19;63.38
64095;BME280;50353;51.420;5.682;2023-03-21T12:49:32;100931.75;;;15.25;63.68
64095;BME280;50353;51.420;5.682;2023-03-21T12:52:33;100939.66;;;15.38;62.96
64095;BME280;50353;51.420;5.682;2023-03-21T12:55:05;100940.59;;;15.37;62.63
64095;BME280;50353;51.420;5.682;2023-03-21T12:57:44;100937.59;;;15.19;62.34
64095;BME280;50353;51.420;5.682;2023-03-21T13:00:19;100941.81;;;15.44;62.49
64095;BME280;50353;51.420;5.682;2023-03-21T13:08:04;100933.91;;;15.54;61.49
64095;BME280;50353;51.420;5.682;2023-03-21T13:10:32;100920.97;;;15.27;63.64
64095;BME280;50353;51.420;5.682;2023-03-21T13:13:24;100932.34;;;15.40;62.95
64095;BME280;50353;51.420;5.682;2023-03-21T13:16:16;100925.84;;;15.21;64.18
64095;BME280;50353;51.420;5.682;2023-03-21T13:21:20;100919.47;;;14.77;64.76
64095;BME280;50353;51.420;5.682;2023-03-21T13:26:47;100918.31;;;15.49;63.46
64095;BME280;50353;51.420;5.682;2023-03-21T13:29:30;100912.75;;;15.18;62.83
64095;BME280;50353;51.420;5.682;2023-03-21T13:32:06;100924.63;;;15.37;63.90
64095;BME280;50353;51.420;5.682;2023-03-21T13:34:32;100919.78;;;15.42;62.34
64095;BME280;50353;51.420;5.682;2023-03-21T13:36:59;100905.69;;;15.51;63.11
64095;BME280;50353;51.420;5.682;2023-03-21T13:39:26;100903.16;;;15.50;64.27
64095;BME280;50353;51.420;5.682;2023-03-21T13:41:53;100906.81;;;15.49;63.71
64095;BME280;50353;51.420;5.682;2023-03-21T13:44:31;100906.78;;;15.71;62.18
64095;BME280;50353;51.420;5.682;2023-03-21T13:47:03;100904.44;;;15.89;61.07
64095;BME280;50353;51.420;5.682;2023-03-21T13:49:34;100895.50;;;15.79;61.16
64095;BME280;50353;51.420;5.682;2023-03-21T13:57:04;100894.72;;;15.45;62.94
64095;BME280;50353;51.420;5.682;2023-03-21T13:59:41;100890.47;;;15.19;63.68
64095;BME280;50353;51.420;5.682;2023-03-21T14:02:27;100888.28;;;15.13;63.99
64095;BME280;50353;51.420;5.682;2023-03-21T14:04:57;100870.16;;;15.30;65.17
64095;BME280;50353;51.420;5.682;2023-03-21T14:07:26;100867.69;;;15.49;64.26
64095;BME280;50353;51.420;5.682;2023-03-21T14:10:02;100870.38;;;15.49;63.02
64095;BME280;50353;51.420;5.682;2023-03-21T14:12:33;100871.94;;;15.52;63.52
64095;BME280;50353;51.420;5.682;2023-03-21T14:15:19;100871.28;;;15.60;64.16
64095;BME280;50353;51.420;5.682;2023-03-21T14:17:50;100853.63;;;15.47;63.43
64095;BME280;50353;51.420;5.682;2023-03-21T14:20:25;100863.28;;;15.71;62.82
64095;BME280;50353;51.420;5.682;2023-03-21T14:22:51;100861.00;;;15.66;63.68
64095;BME280;50353;51.420;5.682;2023-03-21T14:25:19;100850.75;;;15.50;62.91